createdAt,value
2022-11-22T00:00:47.602Z,99089.00
2022-11-22T00:03:15.344Z,99083.75
2022-11-22T00:05:42.962Z,99072.59
2022-11-22T00:08:10.686Z,99069.16
2022-11-22T00:10:39.775Z,99069.28
2022-11-22T00:13:07.448Z,99054.66
2022-11-22T00:15:35.585Z,99044.19
2022-11-22T00:18:03.190Z,99031.75
2022-11-22T00:20:30.813Z,99033.16
2022-11-22T00:22:58.597Z,99027.78
2022-11-22T00:25:26.535Z,99028.47
2022-11-22T00:27:55.654Z,99020.53
2022-11-22T00:30:23.324Z,99021.22
2022-11-22T00:32:50.983Z,99023.69
2022-11-22T00:35:18.615Z,99025.47
2022-11-22T00:37:46.262Z,99026.31
2022-11-22T00:40:13.977Z,99020.94
2022-11-22T00:42:41.640Z,99019.16
2022-11-22T00:45:11.546Z,99027.81
2022-11-22T00:47:39.242Z,99027.59
2022-11-22T00:50:07.447Z,99027.72
2022-11-22T00:52:35.063Z,99032.38
2022-11-22T00:55:02.723Z,99027.97
2022-11-22T00:57:30.459Z,99034.84
2022-11-22T00:59:58.055Z,99033.06
2022-11-22T01:02:27.081Z,99034.31
2022-11-22T01:04:54.740Z,99032.38
2022-11-22T01:07:22.460Z,99030.44
2022-11-22T01:09:50.200Z,99019.03
2022-11-22T01:12:17.857Z,99031.28
2022-11-22T01:14:45.530Z,99021.91
2022-11-22T01:17:13.506Z,99017.34
2022-11-22T01:19:42.731Z,99017.50
2022-11-22T01:22:10.483Z,99023.31
2022-11-22T01:24:38.141Z,99027.44
2022-11-22T01:27:05.801Z,99030.19
2022-11-22T01:29:33.841Z,99026.63
2022-11-22T01:34:52.024Z,99023.72
2022-11-22T01:37:21.004Z,99019.19
2022-11-22T01:39:48.727Z,99013.97
2022-11-22T01:42:16.367Z,99013.00
2022-11-22T01:44:45.220Z,99011.91
2022-11-22T01:47:14.521Z,99005.69
2022-11-22T01:49:44.258Z,99011.75
2022-11-22T01:52:15.488Z,99011.75
2022-11-22T01:54:47.074Z,99007.63
2022-11-22T01:57:18.810Z,99008.16
2022-11-22T01:59:49.544Z,99007.94
2022-11-22T02:02:17.293Z,99008.63
2022-11-22T02:04:45.206Z,99005.16
2022-11-22T02:07:16.753Z,99012.88
2022-11-22T02:09:46.285Z,99014.53
2022-11-22T02:12:14.319Z,99012.88
2022-11-22T02:14:42.455Z,99023.13
2022-11-22T02:17:10.120Z,99017.47
2022-11-22T02:19:41.829Z,99010.19
2022-11-22T02:22:17.515Z,99013.47
2022-11-22T02:24:50.374Z,99011.00
2022-11-22T02:27:19.499Z,99019.41
2022-11-22T02:29:47.452Z,99013.19
2022-11-22T02:32:15.132Z,98998.19
2022-11-22T02:34:44.637Z,98998.06
2022-11-22T02:37:13.122Z,99000.53
2022-11-22T02:39:42.716Z,98999.44
2022-11-22T02:42:10.628Z,99005.50
2022-11-22T02:44:41.104Z,98995.59
2022-11-22T02:47:08.774Z,99004.97
2022-11-22T02:49:36.431Z,99005.94
2022-11-22T02:52:04.158Z,99016.28
2022-11-22T02:54:31.764Z,99010.06
2022-11-22T02:56:59.368Z,99019.56
2022-11-22T02:59:27.534Z,99038.63
2022-11-22T03:02:01.773Z,99037.81
2022-11-22T03:04:30.956Z,99044.13
2022-11-22T03:07:00.958Z,99049.94
2022-11-22T03:09:29.736Z,99045.38
2022-11-22T03:11:58.014Z,99050.47
2022-11-22T03:14:25.661Z,99041.66
2022-11-22T03:16:53.413Z,99047.72
2022-11-22T03:19:22.521Z,99048.44
2022-11-22T03:21:50.436Z,99050.09
2022-11-22T03:24:19.978Z,99047.47
2022-11-22T03:26:49.186Z,99052.44
2022-11-22T03:29:17.212Z,99048.84
2022-11-22T03:31:44.804Z,99045.28
2022-11-22T03:34:13.049Z,99062.66
2022-11-22T03:36:42.263Z,99057.41
2022-11-22T03:39:09.876Z,99056.59
2022-11-22T03:41:37.497Z,99062.81
2022-11-22T03:44:05.367Z,99057.75
2022-11-22T03:46:33.096Z,99056.91
2022-11-22T03:49:00.776Z,99056.84
2022-11-22T03:51:28.656Z,99060.94
2022-11-22T03:53:58.567Z,99068.31
2022-11-22T03:56:26.178Z,99063.59
2022-11-22T03:58:54.947Z,99068.28
2022-11-22T04:01:22.952Z,99070.44
2022-11-22T04:03:50.736Z,99080.34
2022-11-22T04:06:18.324Z,99069.28
2022-11-22T04:08:46.048Z,99078.34
2022-11-22T04:11:15.071Z,99081.81
2022-11-22T04:14:00.452Z,99086.34
2022-11-22T04:16:28.156Z,99080.34
2022-11-22T04:18:55.797Z,99081.81
2022-11-22T04:21:34.295Z,99090.66
2022-11-22T04:24:19.899Z,99089.16
2022-11-22T04:26:49.388Z,99097.19
2022-11-22T04:29:17.457Z,99089.78
2022-11-22T04:32:03.237Z,99092.94
2022-11-22T04:34:30.864Z,99089.09
2022-11-22T04:36:58.758Z,99096.56
2022-11-22T04:39:26.397Z,99097.25
2022-11-22T04:42:09.749Z,99103.19
2022-11-22T04:44:43.243Z,99096.16
2022-11-22T04:47:11.238Z,99104.84
2022-11-22T04:49:39.250Z,99108.19
2022-11-22T04:52:24.948Z,99101.69
2022-11-22T04:54:52.637Z,99100.59
2022-11-22T04:57:21.639Z,99102.13
2022-11-22T04:59:49.215Z,99103.78
2022-11-22T05:02:16.837Z,99108.75
2022-11-22T05:04:50.263Z,99099.09
2022-11-22T05:07:18.424Z,99101.59
2022-11-22T05:09:46.131Z,99105.59
2022-11-22T05:12:13.719Z,99106.41
2022-11-22T05:14:42.746Z,99096.06
2022-11-22T05:17:13.179Z,99103.53
2022-11-22T05:19:44.907Z,99101.84
2022-11-22T05:22:16.978Z,99099.13
2022-11-22T05:24:43.592Z,99111.94
2022-11-22T05:27:11.240Z,99104.38
2022-11-22T05:29:38.877Z,99112.63
2022-11-22T05:32:07.875Z,99118.72
2022-11-22T05:34:35.452Z,99109.19
2022-11-22T05:37:03.075Z,99110.97
2022-11-22T05:39:30.894Z,99121.47
2022-11-22T05:41:58.712Z,99117.19
2022-11-22T05:44:26.368Z,99115.53
2022-11-22T05:46:54.076Z,99118.41
2022-11-22T05:49:23.113Z,99115.09
2022-11-22T05:51:50.809Z,99113.31
2022-11-22T05:54:18.464Z,99123.81
2022-11-22T05:56:47.831Z,99123.25
2022-11-22T05:59:15.747Z,99125.19
2022-11-22T06:01:43.596Z,99138.41
2022-11-22T06:04:11.422Z,99136.63
2022-11-22T06:06:40.493Z,99135.78
2022-11-22T06:09:08.187Z,99140.91
2022-11-22T06:11:36.382Z,99137.72
2022-11-22T06:14:04.206Z,99141.03
2022-11-22T06:16:31.888Z,99155.94
2022-11-22T06:18:59.494Z,99151.78
2022-11-22T06:21:28.627Z,99150.97
2022-11-22T06:23:57.962Z,99159.81
2022-11-22T06:26:26.209Z,99154.81
2022-11-22T06:28:55.623Z,99153.44
2022-11-22T06:31:24.615Z,99152.75
2022-11-22T06:33:54.119Z,99152.84
2022-11-22T06:36:23.189Z,99157.13
2022-11-22T06:38:50.953Z,99152.03
2022-11-22T06:41:21.068Z,99158.38
2022-11-22T06:43:49.953Z,99154.22
2022-11-22T06:46:19.079Z,99166.63
2022-11-22T06:48:46.934Z,99164.97
2022-11-22T06:51:16.144Z,99167.72
2022-11-22T06:53:48.448Z,99170.47
2022-11-22T06:56:18.916Z,99179.41
2022-11-22T06:58:49.085Z,99184.09
2022-11-22T07:01:18.172Z,99188.38
2022-11-22T07:03:46.710Z,99192.78
2022-11-22T07:06:15.792Z,99190.84
2022-11-22T07:08:43.723Z,99195.28
2022-11-22T07:11:12.939Z,99194.31
2022-11-22T07:13:40.917Z,99206.03
2022-11-22T07:16:11.654Z,99199.81
2022-11-22T07:21:08.027Z,99202.44
2022-11-22T07:23:39.936Z,99188.50
2022-11-22T07:26:07.767Z,99196.91
2022-11-22T07:28:35.626Z,99197.34
2022-11-22T07:31:05.502Z,99205.06
2022-11-22T07:33:33.619Z,99205.19
2022-11-22T07:36:06.639Z,99207.94
2022-11-22T07:38:34.589Z,99218.28
2022-11-22T07:41:02.575Z,99221.75
2022-11-22T07:43:30.462Z,99214.25
2022-11-22T07:46:00.154Z,99213.44
2022-11-22T07:48:27.944Z,99201.56
2022-11-22T07:50:55.601Z,99212.88
2022-11-22T07:53:24.663Z,99214.66
2022-11-22T07:55:52.285Z,99212.06
2022-11-22T07:58:20.359Z,99222.53
2022-11-22T08:00:48.089Z,99210.94
2022-11-22T08:03:17.804Z,99214.41
2022-11-22T08:05:45.967Z,99206.81
2022-11-22T08:08:13.585Z,99217.00
2022-11-22T08:10:42.625Z,99210.81
2022-11-22T08:13:10.328Z,99221.97
2022-11-22T08:15:38.021Z,99216.75
2022-11-22T08:18:05.805Z,99228.09
2022-11-22T08:20:33.526Z,99227.94
2022-11-22T08:23:01.258Z,99233.06
2022-11-22T08:25:28.973Z,99237.47
2022-11-22T08:27:58.071Z,99224.22
2022-11-22T08:30:25.812Z,99234.19
2022-11-22T08:32:55.441Z,99241.91
2022-11-22T08:35:23.270Z,99233.09
2022-11-22T08:37:51.097Z,99228.00
2022-11-22T08:40:18.925Z,99244.72
2022-11-22T08:42:46.651Z,99229.69
2022-11-22T08:45:15.802Z,99247.78
2022-11-22T08:47:43.448Z,99233.84
2022-11-22T08:50:11.739Z,99240.22
2022-11-22T08:52:39.525Z,99227.94
2022-11-22T08:55:08.480Z,99240.53
2022-11-22T08:57:36.082Z,99231.28
2022-11-22T09:00:04.515Z,99228.28
2022-11-22T09:02:33.535Z,99245.16
2022-11-22T09:05:01.209Z,99247.63
2022-11-22T09:10:17.223Z,99259.91
2022-11-22T09:12:45.692Z,99271.09
2022-11-22T09:15:13.826Z,99274.41
2022-11-22T09:17:42.937Z,99264.34
2022-11-22T09:20:11.999Z,99271.50
2022-11-22T09:22:40.141Z,99283.53
2022-11-22T09:25:08.643Z,99287.66
2022-11-22T09:27:36.692Z,99289.72
2022-11-22T09:30:05.115Z,99291.53
2022-11-22T09:32:33.984Z,99298.16
2022-11-22T09:37:38.724Z,99296.66
2022-11-22T09:40:07.632Z,99289.50
2022-11-22T09:43:10.945Z,99297.94
2022-11-22T09:45:47.571Z,99304.84
2022-11-22T09:48:39.412Z,99295.75
2022-11-22T09:51:11.312Z,99304.31
2022-11-22T09:53:45.288Z,99286.09
2022-11-22T09:56:14.484Z,99283.88
2022-11-22T09:58:46.521Z,99287.09
2022-11-22T10:01:18.252Z,99271.63
2022-11-22T10:03:49.334Z,99285.06
2022-11-22T10:06:20.676Z,99282.97
2022-11-22T10:08:55.518Z,99279.13
2022-11-22T10:11:30.900Z,99278.47
2022-11-22T10:14:04.337Z,99274.56
2022-11-22T10:16:35.735Z,99276.22
2022-11-22T10:19:10.744Z,99279.28
2022-11-22T10:21:38.440Z,99279.00
2022-11-22T10:24:08.010Z,99277.06
2022-11-22T10:26:36.053Z,99282.31
2022-11-22T10:29:16.151Z,99288.28
2022-11-22T10:31:49.613Z,99277.34
2022-11-22T10:34:22.508Z,99276.66
2022-11-22T10:36:52.680Z,99265.63
2022-11-22T10:39:46.212Z,99269.63
2022-11-22T10:42:23.715Z,99272.66
2022-11-22T10:44:57.577Z,99268.25
2022-11-22T10:47:39.644Z,99265.75
2022-11-22T10:50:13.622Z,99268.25
2022-11-22T10:52:48.850Z,99267.69
2022-11-22T10:55:24.706Z,99256.47
2022-11-22T10:58:00.360Z,99260.78
2022-11-22T11:00:31.012Z,99256.34
2022-11-22T11:03:15.150Z,99260.38
2022-11-22T11:06:07.959Z,99250.69
2022-11-22T11:09:02.613Z,99256.63
2022-11-22T11:11:27.715Z,99244.19
2022-11-22T11:13:57.975Z,99236.19
2022-11-22T11:16:27.769Z,99235.34
2022-11-22T11:18:57.893Z,99238.53
2022-11-22T11:21:27.318Z,99241.72
2022-11-22T11:23:55.146Z,99241.44
2022-11-22T11:26:27.179Z,99235.19
2022-11-22T11:29:31.076Z,99235.63
2022-11-22T11:32:14.278Z,99238.63
2022-11-22T11:34:44.822Z,99236.00
2022-11-22T11:37:23.360Z,99242.25
2022-11-22T11:39:51.307Z,99234.50
2022-11-22T11:42:26.022Z,99238.09
2022-11-22T11:44:53.772Z,99242.53
2022-11-22T11:47:33.142Z,99232.03
2022-11-22T11:50:00.781Z,99235.31
2022-11-22T11:52:29.816Z,99237.81
2022-11-22T11:55:00.566Z,99236.72
2022-11-22T11:57:31.825Z,99236.44
2022-11-22T12:00:01.347Z,99238.53
2022-11-22T12:04:49.962Z,99236.97
2022-11-22T12:07:20.042Z,99236.00
2022-11-22T12:09:49.347Z,99233.69
2022-11-22T12:12:30.533Z,99236.16
2022-11-22T12:15:11.388Z,99235.63
2022-11-22T12:17:45.413Z,99233.69
2022-11-22T12:20:19.395Z,99233.97
2022-11-22T12:22:52.710Z,99229.41
2022-11-22T12:25:38.573Z,99230.63
2022-11-22T12:28:14.010Z,99228.28
2022-11-22T12:30:42.934Z,99226.47
2022-11-22T12:33:18.644Z,99224.97
2022-11-22T12:35:48.785Z,99228.13
2022-11-22T12:38:19.108Z,99224.66
2022-11-22T12:40:48.438Z,99234.78
2022-11-22T12:43:21.111Z,99232.00
2022-11-22T12:45:51.401Z,99231.84
2022-11-22T12:48:22.370Z,99234.47
2022-11-22T12:50:54.570Z,99230.09
2022-11-22T12:53:24.894Z,99241.69
2022-11-22T12:55:57.889Z,99232.00
2022-11-22T12:58:31.576Z,99225.78
2022-11-22T13:01:06.912Z,99236.28
2022-11-22T13:03:38.621Z,99225.78
2022-11-22T13:06:08.739Z,99243.09
2022-11-22T13:08:39.922Z,99239.50
2022-11-22T13:11:13.707Z,99236.72
2022-11-22T13:13:44.559Z,99229.69
2022-11-22T13:16:13.413Z,99237.25
2022-11-22T13:18:42.996Z,99238.94
2022-11-22T13:21:17.953Z,99240.88
2022-11-22T13:24:03.547Z,99226.75
2022-11-22T13:26:35.494Z,99232.31
2022-11-22T13:29:10.143Z,99228.69
2022-11-22T13:31:40.928Z,99230.50
2022-11-22T13:34:25.673Z,99226.75
2022-11-22T13:36:57.870Z,99225.81
2022-11-22T13:39:29.681Z,99228.44
2022-11-22T13:42:06.205Z,99220.56
2022-11-22T13:45:14.657Z,99227.56
2022-11-22T13:47:43.705Z,99226.75
2022-11-22T13:50:57.277Z,99224.00
2022-11-22T13:53:28.873Z,99222.31
2022-11-22T13:55:57.545Z,99220.56
2022-11-22T13:59:49.366Z,99214.59
2022-11-22T14:02:23.493Z,99222.31
2022-11-22T14:04:54.866Z,99220.81
2022-11-22T14:07:37.296Z,99226.75
2022-11-22T14:10:24.504Z,99233.69
2022-11-22T14:13:06.207Z,99235.34
2022-11-22T14:15:49.230Z,99239.63
2022-11-22T14:18:42.484Z,99230.09
2022-11-22T14:21:14.680Z,99229.25
2022-11-22T14:23:51.497Z,99235.34
2022-11-22T14:26:26.837Z,99236.44
2022-11-22T14:29:18.967Z,99221.94
2022-11-22T14:31:57.256Z,99231.06
2022-11-22T14:34:26.044Z,99228.44
2022-11-22T14:37:31.753Z,99225.66
2022-11-22T14:40:14.412Z,99223.19
2022-11-22T14:42:54.149Z,99223.44
2022-11-22T14:45:26.188Z,99223.44
2022-11-22T14:48:01.151Z,99227.72
2022-11-22T14:50:30.755Z,99215.84
2022-11-22T14:52:59.993Z,99218.19
2022-11-22T14:55:32.460Z,99225.41
2022-11-22T14:58:02.794Z,99218.34
2022-11-22T15:00:42.268Z,99223.75
2022-11-22T15:03:37.364Z,99222.09
2022-11-22T15:09:12.683Z,99227.34
2022-11-22T15:09:46.560Z,99218.19
2022-11-22T15:12:50.200Z,99207.81
2022-11-22T15:57:26.426Z,99230.66
2022-11-22T15:59:55.321Z,99235.06
2022-11-22T16:02:25.357Z,99235.06
2022-11-22T16:06:10.196Z,99219.31
2022-11-22T16:07:49.300Z,99231.63
2022-11-22T16:10:20.332Z,99229.97
2022-11-22T16:12:48.200Z,99230.78
2022-11-22T16:15:25.129Z,99230.91
2022-11-22T16:17:59.452Z,99229.22
2022-11-22T16:20:33.517Z,99233.44
2022-11-22T16:23:19.917Z,99240.47
2022-11-22T16:25:49.806Z,99234.25
2022-11-22T16:28:31.858Z,99242.13
2022-11-22T16:31:01.709Z,99241.16
2022-11-22T16:33:29.649Z,99248.06
2022-11-22T16:35:59.757Z,99243.78
2022-11-22T16:38:27.936Z,99229.97
2022-11-22T16:40:58.209Z,99235.91
2022-11-22T16:43:27.511Z,99242.00
2022-11-22T16:45:55.419Z,99245.44
2022-11-22T16:48:33.041Z,99242.28
2022-11-22T16:51:04.390Z,99239.50
2022-11-22T16:53:39.130Z,99238.69
2022-11-22T16:56:07.475Z,99233.66
2022-11-22T16:58:35.116Z,99239.72
2022-11-22T17:01:02.875Z,99234.41
2022-11-22T17:03:31.908Z,99238.78
2022-11-22T17:05:59.521Z,99236.16
2022-11-22T17:08:28.551Z,99244.03
2022-11-22T17:10:56.628Z,99243.09
2022-11-22T17:13:26.665Z,99245.59
2022-11-22T17:15:55.481Z,99244.47
2022-11-22T17:18:23.272Z,99239.50
2022-11-22T17:20:51.038Z,99249.72
2022-11-22T17:23:22.700Z,99255.94
2022-11-22T17:25:51.731Z,99246.41
2022-11-22T17:28:19.422Z,99249.72
2022-11-22T17:30:47.080Z,99242.97
2022-11-22T17:33:14.806Z,99243.78
2022-11-22T17:35:42.614Z,99245.44
2022-11-22T17:38:11.457Z,99245.44
2022-11-22T17:40:39.116Z,99254.97
2022-11-22T17:43:08.260Z,99248.38
2022-11-22T17:45:42.453Z,99259.13
2022-11-22T17:48:10.193Z,99262.59
2022-11-22T17:50:37.943Z,99272.13
2022-11-22T17:53:05.799Z,99281.81
2022-11-22T17:55:54.654Z,99269.50
2022-11-22T17:58:22.582Z,99272.00
2022-11-22T18:00:50.268Z,99280.69
2022-11-22T18:03:18.011Z,99277.66
2022-11-22T18:05:45.748Z,99277.25
2022-11-22T18:08:13.413Z,99281.69
2022-11-22T18:10:41.140Z,99285.97
2022-11-22T18:13:24.096Z,99287.63
2022-11-22T18:15:57.335Z,99285.97
2022-11-22T18:18:55.049Z,99298.13
2022-11-22T18:21:17.474Z,99298.13
2022-11-22T18:23:45.570Z,99291.91
2022-11-22T18:31:52.918Z,99300.91
2022-11-22T18:34:21.192Z,99296.47
2022-11-22T18:36:55.340Z,99293.16
2022-11-22T18:39:25.279Z,99291.50
2022-11-22T18:41:53.021Z,99294.41
2022-11-22T18:44:20.933Z,99300.63
2022-11-22T18:46:50.003Z,99296.50
2022-11-22T18:49:17.665Z,99295.66
2022-11-22T18:51:45.306Z,99298.13
2022-11-22T18:54:13.435Z,99293.97
2022-11-22T18:56:41.242Z,99300.91
2022-11-22T18:59:12.262Z,99293.97
2022-11-22T19:01:40.564Z,99297.31
2022-11-22T19:04:10.813Z,99306.84
2022-11-22T19:06:38.475Z,99318.03
2022-11-22T19:09:06.936Z,99299.78
2022-11-22T19:11:35.300Z,99304.22
2022-11-22T19:14:03.077Z,99303.25
2022-11-22T19:16:31.761Z,99297.31
2022-11-22T19:19:00.024Z,99304.38
2022-11-22T19:21:29.977Z,99302.78
2022-11-22T19:23:58.222Z,99311.44
2022-11-22T19:26:27.621Z,99308.66
2022-11-22T19:28:57.386Z,99307.53
2022-11-22T19:31:26.437Z,99292.75
2022-11-22T19:33:54.157Z,99301.03
2022-11-22T19:36:26.360Z,99300.06
2022-11-22T19:38:59.834Z,99300.06
2022-11-22T19:41:27.802Z,99315.84
2022-11-22T19:43:56.906Z,99310.59
2022-11-22T19:46:25.056Z,99307.13
2022-11-22T19:48:53.174Z,99301.72
2022-11-22T19:51:21.033Z,99306.97
2022-11-22T19:53:48.982Z,99308.63
2022-11-22T19:56:19.287Z,99307.66
2022-11-22T19:58:51.269Z,99306.69
2022-11-22T20:01:19.586Z,99307.41
2022-11-22T20:03:47.705Z,99317.19
2022-11-22T20:06:15.549Z,99318.75
2022-11-22T20:08:43.221Z,99309.31
2022-11-22T20:11:12.530Z,99314.31
2022-11-22T20:13:42.834Z,99314.31
2022-11-22T20:16:12.238Z,99315.28
2022-11-22T20:18:39.900Z,99313.50
2022-11-22T20:21:09.217Z,99317.91
2022-11-22T20:23:38.344Z,99301.03
2022-11-22T20:26:07.307Z,99317.78
2022-11-22T20:28:34.960Z,99322.19
2022-11-22T20:31:08.251Z,99322.34
2022-11-22T20:33:37.065Z,99322.47
2022-11-22T20:36:06.114Z,99327.44
2022-11-22T20:38:34.766Z,99330.75
2022-11-22T20:41:02.442Z,99332.41
2022-11-22T20:43:31.892Z,99324.28
2022-11-22T20:46:03.305Z,99342.66
2022-11-22T20:48:32.756Z,99334.91
2022-11-22T20:51:01.418Z,99331.44
2022-11-22T20:53:29.532Z,99335.72
2022-11-22T20:55:57.402Z,99331.44
2022-11-22T20:58:25.985Z,99330.47
2022-11-22T21:00:54.096Z,99323.31
2022-11-22T21:03:21.831Z,99336.31
2022-11-22T21:05:53.614Z,99330.75
2022-11-22T21:08:21.499Z,99327.44
2022-11-22T21:10:49.303Z,99324.66
2022-11-22T21:13:17.025Z,99333.81
2022-11-22T21:15:44.973Z,99338.34
2022-11-22T21:18:28.118Z,99336.69
2022-11-22T21:21:02.903Z,99342.66
2022-11-22T21:23:30.708Z,99330.47
2022-11-22T21:25:58.374Z,99336.16
2022-11-22T21:28:26.456Z,99326.47
2022-11-22T21:30:55.021Z,99333.38
2022-11-22T21:33:23.101Z,99343.75
2022-11-22T21:35:51.865Z,99335.19
2022-11-22T21:38:25.681Z,99338.22
2022-11-22T21:41:17.241Z,99335.59
2022-11-22T21:43:50.591Z,99339.88
2022-11-22T21:46:20.368Z,99340.56
2022-11-22T21:48:49.340Z,99353.72
2022-11-22T21:51:17.014Z,99350.41
2022-11-22T21:53:46.151Z,99352.06
2022-11-22T21:56:13.887Z,99347.63
2022-11-22T21:58:43.348Z,99348.31
2022-11-22T22:01:14.304Z,99343.75
2022-11-22T22:03:42.300Z,99346.25
2022-11-22T22:06:10.014Z,99350.38
2022-11-22T22:08:37.710Z,99354.13
2022-11-22T22:11:07.189Z,99349.56
2022-11-22T22:13:34.909Z,99355.78
2022-11-22T22:16:06.560Z,99356.47
2022-11-22T22:18:36.692Z,99356.47
2022-11-22T22:21:05.962Z,99354.81
2022-11-22T22:23:34.817Z,99363.00
2022-11-22T22:26:04.041Z,99354.97
2022-11-22T22:28:35.014Z,99356.75
2022-11-22T22:31:04.715Z,99339.59
2022-11-22T22:33:33.041Z,99357.28
2022-11-22T22:36:00.848Z,99347.59
2022-11-22T22:38:28.467Z,99344.03
2022-11-22T22:40:56.489Z,99356.47
2022-11-22T22:43:24.382Z,99350.38
2022-11-22T22:45:53.401Z,99357.19
2022-11-22T22:48:21.092Z,99354.53
2022-11-22T22:50:48.733Z,99360.75
2022-11-22T22:53:16.384Z,99343.63
2022-11-22T22:55:44.062Z,99363.66
2022-11-22T22:58:12.499Z,99367.81
2022-11-22T23:00:40.572Z,99355.09
2022-11-22T23:03:09.691Z,99350.81
2022-11-22T23:05:39.669Z,99363.66
2022-11-22T23:08:07.413Z,99369.91
2022-11-22T23:10:35.012Z,99361.34
2022-11-22T23:13:02.704Z,99360.22
2022-11-22T23:15:56.395Z,99359.25
2022-11-22T23:18:19.479Z,99370.59
2022-11-22T23:20:47.076Z,99367.97
2022-11-22T23:23:14.706Z,99366.97
2022-11-22T23:25:42.373Z,99373.91
2022-11-22T23:28:10.064Z,99373.06
2022-11-22T23:30:37.680Z,99366.97
2022-11-22T23:33:05.398Z,99379.16
2022-11-22T23:35:36.556Z,99361.34
2022-11-22T23:38:04.832Z,99375.44
2022-11-22T23:40:32.539Z,99364.78
2022-11-22T23:43:00.230Z,99369.19
2022-11-22T23:45:27.854Z,99376.25
2022-11-22T23:47:55.543Z,99381.38
2022-11-22T23:50:23.257Z,99377.78
2022-11-22T23:52:57.122Z,99377.78
2022-11-22T23:55:25.164Z,99380.25
2022-11-22T23:57:52.990Z,99390.78
